Wetterdaten: Woche 23.10.17 - 29.10.17 (KW43)
Datum Zeit Temp. A. Feuchte A. Luftdruck Regen Wind Richtung Taupunkt Windchill Windben
23.10.2017 00:00 5,7 C 93 % 1019,0 hPa 0,0 l/m 3,0 km/h (1 Bft) O 4,7 C 5,7 C 8,0 km/h (2 Bft)
23.10.2017 01:00 5,6 C 93 % 1019,0 hPa 0,3 l/m 3,4 km/h (1 Bft) O-NO 4,6 C 5,6 C 9,0 km/h (2 Bft)
23.10.2017 02:00 5,5 C 93 % 1018,8 hPa 0,0 l/m 2,3 km/h (1 Bft) NO 4,5 C 5,5 C 7,2 km/h (2 Bft)
23.10.2017 03:00 5,3 C 93 % 1019,0 hPa 2,0 l/m 3,3 km/h (1 Bft) O-NO 4,3 C 5,3 C 10,1 km/h (2 Bft)
23.10.2017 04:00 4,9 C 94 % 1019,1 hPa 0,3 l/m 3,7 km/h (1 Bft) O-NO 4,0 C 4,9 C 10,1 km/h (2 Bft)
23.10.2017 05:00 5,1 C 94 % 1019,6 hPa 0,0 l/m 2,0 km/h (1 Bft) O 4,3 C 5,1 C 6,8 km/h (2 Bft)
23.10.2017 06:00 5,2 C 94 % 1019,9 hPa 0,0 l/m 1,8 km/h (1 Bft) O-NO 4,3 C 5,2 C 5,5 km/h (2 Bft)
23.10.2017 07:00 5,3 C 95 % 1020,2 hPa 0,0 l/m 1,7 km/h (1 Bft) O 4,6 C 5,3 C 5,6 km/h (2 Bft)
23.10.2017 08:00 5,5 C 94 % 1020,5 hPa 0,3 l/m 1,3 km/h (1 Bft) O 4,6 C 5,5 C 5,6 km/h (2 Bft)
23.10.2017 09:00 5,7 C 95 % 1021,1 hPa 0,3 l/m 1,4 km/h (1 Bft) O-NO 4,9 C 5,7 C 5,2 km/h (1 Bft)
23.10.2017 10:00 6,2 C 93 % 1021,7 hPa 0,0 l/m 2,5 km/h (1 Bft) O-NO 5,1 C 6,2 C 7,9 km/h (2 Bft)
23.10.2017 11:00 6,9 C 92 % 1021,9 hPa 0,0 l/m 2,4 km/h (1 Bft) O 5,7 C 6,9 C 5,9 km/h (2 Bft)
23.10.2017 12:00 7,5 C 90 % 1022,1 hPa 0,0 l/m 3,4 km/h (1 Bft) O-NO 6,0 C 7,5 C 7,7 km/h (2 Bft)
23.10.2017 13:00 8,3 C 84 % 1022,4 hPa 0,0 l/m 3,5 km/h (1 Bft) O-NO 5,8 C 8,3 C 10,9 km/h (2 Bft)
23.10.2017 14:00 8,9 C 84 % 1022,5 hPa 0,0 l/m 4,5 km/h (1 Bft) O-NO 6,3 C 8,9 C 11,7 km/h (2 Bft)
23.10.2017 15:00 9,2 C 81 % 1022,5 hPa 0,0 l/m 3,9 km/h (1 Bft) O 6,0 C 9,1 C 10,6 km/h (2 Bft)
23.10.2017 16:00 7,5 C 91 % 1023,0 hPa 1,3 l/m 1,9 km/h (1 Bft) O 6,1 C 7,5 C 4,9 km/h (1 Bft)
23.10.2017 17:00 7,2 C 93 % 1023,3 hPa 0,3 l/m 2,1 km/h (1 Bft) O-NO 6,1 C 7,2 C 6,3 km/h (2 Bft)
23.10.2017 18:00 6,9 C 94 % 1023,6 hPa 0,5 l/m 1,8 km/h (1 Bft) O-NO 5,9 C 6,9 C 5,6 km/h (2 Bft)
23.10.2017 19:00 6,6 C 95 % 1024,1 hPa 0,5 l/m 1,6 km/h (1 Bft) O 5,8 C 6,6 C 4,8 km/h (1 Bft)
23.10.2017 20:00 6,5 C 95 % 1024,6 hPa 0,5 l/m 0,9 km/h (0 Bft) O-NO 5,8 C 6,5 C 3,5 km/h (1 Bft)
23.10.2017 21:00 6,5 C 96 % 1024,8 hPa 0,3 l/m 1,1 km/h (0 Bft) O-NO 6,0 C 6,5 C 3,1 km/h (1 Bft)
23.10.2017 22:00 6,7 C 97 % 1025,0 hPa 0,3 l/m 1,2 km/h (1 Bft) O-NO 6,2 C 6,7 C 4,3 km/h (1 Bft)
23.10.2017 23:00 7,0 C 97 % 1025,2 hPa 0,0 l/m 0,9 km/h (0 Bft) O 6,5 C 7,0 C 3,0 km/h (1 Bft)
24.10.2017 00:00 7,2 C 97 % 1025,2 hPa 0,3 l/m 2,3 km/h (1 Bft) N-NO 6,8 C 7,2 C 5,0 km/h (1 Bft)
24.10.2017 01:00 7,4 C 96 % 1025,2 hPa 0,0 l/m 2,1 km/h (1 Bft) NO 6,9 C 7,4 C 4,4 km/h (1 Bft)
24.10.2017 02:00 7,5 C 96 % 1025,3 hPa 0,0 l/m 1,8 km/h (1 Bft) O-NO 7,0 C 7,5 C 3,9 km/h (1 Bft)
24.10.2017 03:00 7,6 C 96 % 1025,4 hPa 0,0 l/m 1,1 km/h (1 Bft) O-NO 7,0 C 7,6 C 2,8 km/h (1 Bft)
24.10.2017 04:00 7,7 C 96 % 1025,4 hPa 0,0 l/m 0,4 km/h (0 Bft) N 7,1 C 7,7 C 1,4 km/h (1 Bft)
24.10.2017 05:00 7,7 C 96 % 1025,3 hPa 0,0 l/m 1,6 km/h (1 Bft) NO 7,1 C 7,7 C 3,6 km/h (1 Bft)
24.10.2017 06:00 7,7 C 96 % 1025,6 hPa 0,0 l/m 1,3 km/h (1 Bft) NO 7,1 C 7,7 C 3,3 km/h (1 Bft)
24.10.2017 07:00 7,8 C 96 % 1025,7 hPa 0,0 l/m 1,3 km/h (1 Bft) O-NO 7,2 C 7,8 C 3,0 km/h (1 Bft)
24.10.2017 08:00 7,7 C 96 % 1025,9 hPa 0,0 l/m 0,2 km/h (0 Bft) N 7,1 C 7,7 C 0,9 km/h (0 Bft)
24.10.2017 09:00 8,1 C 96 % 1026,3 hPa 0,0 l/m 1,4 km/h (1 Bft) O-NO 7,4 C 8,1 C 3,0 km/h (1 Bft)
24.10.2017 10:00 9,8 C 92 % 1026,3 hPa 0,0 l/m 2,2 km/h (1 Bft) NO 8,6 C 9,8 C 4,5 km/h (1 Bft)
24.10.2017 11:00 11,7 C 85 % 1026,4 hPa 0,0 l/m 3,3 km/h (1 Bft) O-NO 9,3 C 11,6 C 6,5 km/h (2 Bft)
24.10.2017 12:00 12,2 C 83 % 1026,5 hPa 0,0 l/m 4,7 km/h (1 Bft) NO 9,4 C 12,2 C 11,2 km/h (2 Bft)
24.10.2017 13:00 13,7 C 77 % 1025,7 hPa 0,0 l/m 4,7 km/h (1 Bft) NO 9,8 C 13,7 C 13,0 km/h (3 Bft)
24.10.2017 14:00 14,9 C 75 % 1025,3 hPa 0,0 l/m 3,7 km/h (1 Bft) O-NO 10,6 C 14,9 C 9,0 km/h (2 Bft)
24.10.2017 15:00 16,0 C 71 % 1024,8 hPa 0,0 l/m 4,4 km/h (1 Bft) O 10,7 C 16,0 C 11,0 km/h (2 Bft)
24.10.2017 16:00 15,9 C 70 % 1024,7 hPa 0,0 l/m 3,2 km/h (1 Bft) O-NO 10,5 C 15,9 C 8,9 km/h (2 Bft)
24.10.2017 17:00 14,2 C 77 % 1024,8 hPa 0,0 l/m 0,9 km/h (0 Bft) O-NO 10,2 C 14,2 C 3,1 km/h (1 Bft)
24.10.2017 18:00 11,3 C 87 % 1025,1 hPa 0,0 l/m 0,0 km/h (0 Bft) O-NO 9,3 C 11,3 C 0,3 km/h (0 Bft)
24.10.2017 19:00 9,2 C 92 % 1025,4 hPa 0,0 l/m 0,0 km/h (0 Bft) O-NO 8,0 C 9,2 C 0,0 km/h (0 Bft)
24.10.2017 20:00 8,2 C 94 % 1025,5 hPa 0,0 l/m 0,0 km/h (0 Bft) O-NO 7,4 C 8,2 C 0,0 km/h (0 Bft)
24.10.2017 21:00 8,5 C 96 % 1025,3 hPa 0,0 l/m 0,0 km/h (0 Bft) O-NO 7,9 C 8,5 C 0,0 km/h (0 Bft)
24.10.2017 22:00 9,0 C 96 % 1025,2 hPa 0,0 l/m 0,0 km/h (0 Bft) O-NO 8,5 C 9,0 C 0,3 km/h (0 Bft)
24.10.2017 23:00 9,0 C 96 % 1025,1 hPa 0,0 l/m 0,0 km/h (0 Bft) O-NO 8,3 C 9,0 C 0,1 km/h (0 Bft)
25.10.2017 00:00 8,6 C 96 % 1024,9 hPa 0,0 l/m 0,0 km/h (0 Bft) O-NO 8,0 C 8,6 C 0,0 km/h (0 Bft)
25.10.2017 01:00 8,7 C 96 % 1024,9 hPa 0,0 l/m 0,0 km/h (0 Bft) O-NO 8,1 C 8,7 C 0,1 km/h (0 Bft)
25.10.2017 02:00 8,8 C 96 % 1024,7 hPa 0,0 l/m 0,0 km/h (0 Bft) O-NO 8,2 C 8,8 C 0,3 km/h (0 Bft)
25.10.2017 03:00 8,3 C 95 % 1024,5 hPa 0,0 l/m 0,0 km/h (0 Bft) O-NO 7,6 C 8,3 C 0,8 km/h (0 Bft)
25.10.2017 04:00 7,4 C 95 % 1024,2 hPa 0,0 l/m 0,0 km/h (0 Bft) O-NO 6,6 C 7,4 C 0,4 km/h (0 Bft)
25.10.2017 05:00 6,3 C 95 % 1024,1 hPa 0,0 l/m 0,0 km/h (0 Bft) O-NO 5,7 C 6,3 C 0,0 km/h (0 Bft)
25.10.2017 06:00 6,2 C 97 % 1023,8 hPa 0,0 l/m 0,0 km/h (0 Bft) O-NO 5,7 C 6,2 C 0,0 km/h (0 Bft)
25.10.2017 07:00 6,0 C 97 % 1023,6 hPa 0,0 l/m 0,0 km/h (0 Bft) O-NO 5,5 C 6,0 C 0,3 km/h (0 Bft)
25.10.2017 08:00 6,2 C 97 % 1024,0 hPa 0,0 l/m 0,0 km/h (0 Bft) O-NO 5,8 C 6,2 C 0,0 km/h (0 Bft)
25.10.2017 09:00 7,2 C 98 % 1024,4 hPa 0,0 l/m 0,0 km/h (0 Bft) O-NO 6,9 C 7,2 C 0,0 km/h (0 Bft)
25.10.2017 10:00 9,8 C 95 % 1024,5 hPa 0,0 l/m 0,1 km/h (0 Bft) NW 9,1 C 9,8 C 0,9 km/h (0 Bft)
25.10.2017 11:00 14,6 C 80 % 1024,4 hPa 0,0 l/m 3,9 km/h (1 Bft) NO 11,1 C 14,6 C 8,2 km/h (2 Bft)
25.10.2017 12:00 16,4 C 74 % 1024,3 hPa 0,0 l/m 4,2 km/h (1 Bft) NO 11,8 C 16,4 C 9,4 km/h (2 Bft)
25.10.2017 13:00 17,3 C 72 % 1023,9 hPa 0,0 l/m 3,0 km/h (1 Bft) NO 12,1 C 17,3 C 8,6 km/h (2 Bft)
25.10.2017 14:00 17,5 C 74 % 1023,7 hPa 0,0 l/m 2,2 km/h (1 Bft) O 12,7 C 17,5 C 7,0 km/h (2 Bft)
25.10.2017 15:00 17,2 C 75 % 1023,6 hPa 0,0 l/m 3,5 km/h (1 Bft) O 12,6 C 17,2 C 9,0 km/h (2 Bft)
25.10.2017 16:00 16,7 C 77 % 1023,7 hPa 0,0 l/m 1,8 km/h (1 Bft) O-NO 12,6 C 16,7 C 5,9 km/h (2 Bft)
25.10.2017 17:00 16,1 C 80 % 1023,8 hPa 0,0 l/m 0,6 km/h (0 Bft) O 12,6 C 16,1 C 2,9 km/h (1 Bft)
25.10.2017 18:00 14,8 C 85 % 1023,9 hPa 0,0 l/m 0,3 km/h (0 Bft) O 12,2 C 14,8 C 2,0 km/h (1 Bft)
25.10.2017 19:00 13,5 C 89 % 1024,2 hPa 0,0 l/m 0,0 km/h (0 Bft) O-SO 11,6 C 13,5 C 0,0 km/h (0 Bft)
25.10.2017 20:00 12,1 C 92 % 1024,5 hPa 0,0 l/m 0,0 km/h (0 Bft) O-SO 10,8 C 12,1 C 0,0 km/h (0 Bft)
25.10.2017 21:00 11,2 C 94 % 1024,8 hPa 0,0 l/m 0,0 km/h (0 Bft) O-SO 10,3 C 11,2 C 0,0 km/h (0 Bft)
25.10.2017 22:00 10,2 C 94 % 1025,3 hPa 0,0 l/m 0,0 km/h (0 Bft) O-SO 9,3 C 10,2 C 0,0 km/h (0 Bft)
25.10.2017 23:00 8,9 C 95 % 1025,6 hPa 0,0 l/m 0,0 km/h (0 Bft) O-SO 8,2 C 8,9 C 0,0 km/h (0 Bft)
26.10.2017 00:00 8,7 C 96 % 1025,7 hPa 0,0 l/m 0,0 km/h (0 Bft) O-SO 8,1 C 8,7 C 0,0 km/h (0 Bft)
26.10.2017 01:00 8,0 C 96 % 1026,0 hPa 0,0 l/m 0,0 km/h (0 Bft) O-SO 7,4 C 8,0 C 0,0 km/h (0 Bft)
26.10.2017 02:00 8,1 C 97 % 1026,1 hPa 0,0 l/m 0,0 km/h (0 Bft) O-SO 7,7 C 8,1 C 0,0 km/h (0 Bft)
26.10.2017 03:00 9,0 C 98 % 1025,9 hPa 0,0 l/m 0,0 km/h (0 Bft) O-SO 8,7 C 9,0 C 0,0 km/h (0 Bft)
26.10.2017 04:00 9,0 C 97 % 1025,4 hPa 0,0 l/m 0,0 km/h (0 Bft) O-SO 8,6 C 9,0 C 0,0 km/h (0 Bft)
26.10.2017 05:00 9,0 C 97 % 1025,6 hPa 0,0 l/m 0,0 km/h (0 Bft) O-SO 8,6 C 9,0 C 0,0 km/h (0 Bft)
26.10.2017 06:00 8,8 C 97 % 1025,6 hPa 0,0 l/m 0,1 km/h (0 Bft) O-SO 8,4 C 8,8 C 0,5 km/h (0 Bft)
26.10.2017 07:00 8,0 C 97 % 1025,1 hPa 0,3 l/m 0,0 km/h (0 Bft) N-NO 7,5 C 8,0 C 0,8 km/h (0 Bft)
26.10.2017 08:00 7,1 C 97 % 1025,4 hPa 0,0 l/m 0,0 km/h (0 Bft) N-NO 6,7 C 7,1 C 0,7 km/h (0 Bft)
26.10.2017 09:00 7,8 C 98 % 1025,4 hPa 0,0 l/m 0,2 km/h (0 Bft) N-NO 7,5 C 7,8 C 1,1 km/h (0 Bft)
26.10.2017 10:00 10,3 C 97 % 1025,2 hPa 0,0 l/m 0,1 km/h (0 Bft) N 9,8 C 10,3 C 0,7 km/h (0 Bft)
26.10.2017 11:00 15,7 C 85 % 1024,8 hPa 0,0 l/m 2,6 km/h (1 Bft) NO 13,2 C 15,7 C 5,4 km/h (2 Bft)
26.10.2017 12:00 18,1 C 75 % 1024,6 hPa 0,0 l/m 3,9 km/h (1 Bft) N-NO 13,7 C 18,1 C 9,6 km/h (2 Bft)
26.10.2017 13:00 19,7 C 67 % 1024,4 hPa 0,0 l/m 4,5 km/h (1 Bft) N-NO 13,5 C 19,7 C 11,3 km/h (2 Bft)
26.10.2017 14:00 20,6 C 63 % 1023,7 hPa 0,0 l/m 4,3 km/h (1 Bft) O 13,4 C 20,6 C 11,8 km/h (2 Bft)
26.10.2017 15:00 20,5 C 64 % 1023,4 hPa 0,0 l/m 3,5 km/h (1 Bft) O 13,4 C 20,5 C 11,4 km/h (2 Bft)
26.10.2017 16:00 18,5 C 71 % 1023,4 hPa 0,0 l/m 2,4 km/h (1 Bft) O 13,2 C 18,5 C 6,7 km/h (2 Bft)
26.10.2017 17:00 19,2 C 70 % 1023,3 hPa 0,0 l/m 0,8 km/h (0 Bft) O 13,7 C 19,2 C 3,6 km/h (1 Bft)
26.10.2017 18:00 15,8 C 81 % 1023,2 hPa 0,0 l/m 0,1 km/h (0 Bft) O 12,4 C 15,8 C 0,9 km/h (0 Bft)
26.10.2017 19:00 12,6 C 89 % 1023,5 hPa 0,0 l/m 0,0 km/h (0 Bft) O 10,8 C 12,6 C 0,0 km/h (0 Bft)
26.10.2017 20:00 11,2 C 93 % 1023,6 hPa 0,0 l/m 0,0 km/h (0 Bft) O 10,1 C 11,2 C 0,3 km/h (0 Bft)
26.10.2017 21:00 10,4 C 94 % 1023,2 hPa 0,0 l/m 0,0 km/h (0 Bft) O 9,5 C 10,4 C 0,0 km/h (0 Bft)
26.10.2017 22:00 10,2 C 96 % 1022,9 hPa 0,0 l/m 0,0 km/h (0 Bft) O 9,5 C 10,2 C 0,3 km/h (0 Bft)
26.10.2017 23:00 10,0 C 96 % 1022,4 hPa 0,0 l/m 0,4 km/h (0 Bft) O 9,4 C 10,0 C 1,5 km/h (1 Bft)
27.10.2017 00:00 10,7 C 95 % 1022,3 hPa 0,0 l/m 0,5 km/h (0 Bft) N 9,8 C 10,7 C 2,4 km/h (1 Bft)
27.10.2017 01:00 12,7 C 86 % 1022,0 hPa 0,0 l/m 1,5 km/h (1 Bft) O-NO 10,5 C 12,7 C 5,1 km/h (1 Bft)
27.10.2017 02:00 13,1 C 85 % 1021,3 hPa 0,0 l/m 2,3 km/h (1 Bft) O-NO 10,7 C 13,1 C 7,8 km/h (2 Bft)
27.10.2017 03:00 13,2 C 86 % 1020,9 hPa 0,0 l/m 1,1 km/h (1 Bft) O-NO 10,9 C 13,2 C 4,4 km/h (1 Bft)
27.10.2017 04:00 13,1 C 87 % 1020,6 hPa 0,0 l/m 1,0 km/h (0 Bft) N-NO 11,0 C 13,1 C 3,6 km/h (1 Bft)
27.10.2017 05:00 12,9 C 89 % 1020,1 hPa 0,0 l/m 2,7 km/h (1 Bft) NO 11,1 C 12,9 C 8,7 km/h (2 Bft)
27.10.2017 06:00 12,7 C 86 % 1020,1 hPa 0,0 l/m 3,3 km/h (1 Bft) O 10,4 C 12,7 C 10,5 km/h (2 Bft)
27.10.2017 07:00 11,3 C 87 % 1020,6 hPa 0,0 l/m 1,5 km/h (1 Bft) S-SO 9,1 C 11,3 C 6,8 km/h (2 Bft)
27.10.2017 08:00 10,8 C 89 % 1021,1 hPa 0,8 l/m 2,7 km/h (1 Bft) O 9,0 C 10,8 C 8,9 km/h (2 Bft)
27.10.2017 09:00 10,2 C 94 % 1021,7 hPa 1,3 l/m 1,8 km/h (1 Bft) O 9,2 C 10,2 C 6,8 km/h (2 Bft)
27.10.2017 10:00 10,2 C 94 % 1022,7 hPa 0,5 l/m 1,8 km/h (1 Bft) NO 9,2 C 10,2 C 7,0 km/h (2 Bft)
27.10.2017 11:00 9,5 C 92 % 1024,3 hPa 0,3 l/m 1,6 km/h (1 Bft) NO 8,3 C 9,5 C 5,3 km/h (1 Bft)
27.10.2017 12:00 9,9 C 91 % 1025,0 hPa 0,0 l/m 1,8 km/h (1 Bft) O-NO 8,5 C 9,9 C 4,7 km/h (1 Bft)
27.10.2017 13:00 10,9 C 84 % 1025,5 hPa 0,0 l/m 2,1 km/h (1 Bft) O-NO 8,4 C 10,9 C 7,1 km/h (2 Bft)
27.10.2017 14:00 12,3 C 75 % 1025,6 hPa 0,0 l/m 3,4 km/h (1 Bft) O-NO 7,9 C 12,3 C 9,9 km/h (2 Bft)
27.10.2017 15:00 10,8 C 79 % 1025,9 hPa 0,0 l/m 2,9 km/h (1 Bft) O-NO 7,4 C 10,8 C 7,9 km/h (2 Bft)
27.10.2017 16:00 12,2 C 75 % 1026,3 hPa 0,0 l/m 2,3 km/h (1 Bft) O-NO 7,8 C 12,2 C 6,8 km/h (2 Bft)
27.10.2017 17:00 11,8 C 74 % 1027,1 hPa 0,0 l/m 0,8 km/h (0 Bft) N 7,3 C 11,8 C 4,0 km/h (1 Bft)
27.10.2017 18:00 9,5 C 82 % 1027,9 hPa 0,0 l/m 0,3 km/h (0 Bft) O-NO 6,5 C 9,5 C 1,5 km/h (1 Bft)
27.10.2017 19:00 8,3 C 89 % 1028,9 hPa 0,0 l/m 0,1 km/h (0 Bft) O-NO 6,5 C 8,3 C 0,7 km/h (0 Bft)
27.10.2017 20:00 7,2 C 91 % 1029,1 hPa 0,0 l/m 0,0 km/h (0 Bft) O-NO 5,9 C 7,2 C 0,0 km/h (0 Bft)
27.10.2017 21:00 6,0 C 94 % 1029,4 hPa 0,0 l/m 0,0 km/h (0 Bft) O-NO 5,1 C 6,0 C 0,0 km/h (0 Bft)
27.10.2017 22:00 5,4 C 96 % 1029,6 hPa 0,0 l/m 0,1 km/h (0 Bft) O-SO 4,7 C 5,4 C 1,1 km/h (0 Bft)
27.10.2017 23:00 4,6 C 95 % 1029,4 hPa 0,0 l/m 0,2 km/h (0 Bft) O-SO 3,9 C 4,6 C 0,9 km/h (0 Bft)
28.10.2017 00:00 4,3 C 96 % 1028,9 hPa 0,0 l/m 0,8 km/h (0 Bft) O-SO 3,7 C 4,3 C 2,4 km/h (1 Bft)
28.10.2017 01:00 3,7 C 96 % 1029,0 hPa 0,0 l/m 0,2 km/h (0 Bft) O 3,1 C 3,7 C 1,1 km/h (0 Bft)
28.10.2017 02:00 3,5 C 96 % 1028,7 hPa 0,0 l/m 0,3 km/h (0 Bft) O 2,9 C 3,5 C 0,8 km/h (0 Bft)
28.10.2017 03:00 3,9 C 97 % 1028,2 hPa 0,0 l/m 0,3 km/h (0 Bft) O 3,4 C 3,9 C 1,5 km/h (1 Bft)
28.10.2017 04:00 3,8 C 97 % 1027,8 hPa 0,0 l/m 0,2 km/h (0 Bft) O 3,4 C 3,8 C 1,6 km/h (1 Bft)
28.10.2017 05:00 3,7 C 97 % 1027,9 hPa 0,0 l/m 0,5 km/h (0 Bft) NO 3,3 C 3,7 C 2,4 km/h (1 Bft)
28.10.2017 06:00 3,8 C 97 % 1027,3 hPa 0,0 l/m 1,5 km/h (1 Bft) O-NO 3,3 C 3,8 C 4,8 km/h (1 Bft)
28.10.2017 07:00 3,8 C 97 % 1027,0 hPa 0,3 l/m 0,5 km/h (0 Bft) O 3,4 C 3,8 C 3,1 km/h (1 Bft)
28.10.2017 08:00 4,4 C 98 % 1026,9 hPa 0,0 l/m 0,8 km/h (0 Bft) NO 4,0 C 4,4 C 3,6 km/h (1 Bft)
28.10.2017 09:00 5,2 C 97 % 1027,0 hPa 0,0 l/m 2,2 km/h (1 Bft) O 4,7 C 5,2 C 7,5 km/h (2 Bft)
28.10.2017 10:00 6,3 C 93 % 1026,6 hPa 0,0 l/m 4,7 km/h (1 Bft) O-NO 5,2 C 6,2 C 13,0 km/h (3 Bft)
28.10.2017 11:00 6,9 C 88 % 1025,7 hPa 0,0 l/m 6,1 km/h (2 Bft) O-NO 5,0 C 6,4 C 15,0 km/h (3 Bft)
28.10.2017 12:00 7,0 C 86 % 1025,7 hPa 0,0 l/m 5,8 km/h (2 Bft) O-NO 4,8 C 6,4 C 14,1 km/h (3 Bft)
28.10.2017 13:00 7,6 C 81 % 1025,3 hPa 0,0 l/m 6,3 km/h (2 Bft) O 4,6 C 7,2 C 18,0 km/h (3 Bft)
28.10.2017 14:00 8,0 C 77 % 1024,2 hPa 0,0 l/m 5,4 km/h (2 Bft) O-NO 4,3 C 7,8 C 14,8 km/h (3 Bft)
28.10.2017 15:00 7,9 C 76 % 1023,7 hPa 0,0 l/m 7,0 km/h (2 Bft) O 3,9 C 7,2 C 17,2 km/h (3 Bft)
28.10.2017 16:00 7,4 C 77 % 1023,1 hPa 0,0 l/m 7,2 km/h (2 Bft) O-NO 3,6 C 6,7 C 19,8 km/h (4 Bft)
28.10.2017 17:00 6,8 C 79 % 1022,7 hPa 0,0 l/m 6,6 km/h (2 Bft) O-NO 3,4 C 6,2 C 18,0 km/h (3 Bft)
28.10.2017 18:00 6,4 C 78 % 1022,5 hPa 0,0 l/m 6,8 km/h (2 Bft) NO 2,8 C 6,0 C 16,6 km/h (3 Bft)
28.10.2017 19:00 6,3 C 79 % 1022,3 hPa 0,0 l/m 8,3 km/h (2 Bft) NO 2,9 C 4,8 C 20,1 km/h (4 Bft)
28.10.2017 20:00 6,3 C 79 % 1021,8 hPa 0,0 l/m 9,3 km/h (2 Bft) NO 2,9 C 4,0 C 23,3 km/h (4 Bft)
28.10.2017 21:00 6,1 C 78 % 1021,3 hPa 0,0 l/m 8,9 km/h (2 Bft) O-NO 2,6 C 4,2 C 21,3 km/h (4 Bft)
28.10.2017 22:00 6,2 C 77 % 1020,6 hPa 0,0 l/m 11,1 km/h (2 Bft) NO 2,4 C 2,8 C 25,3 km/h (4 Bft)
28.10.2017 23:00 6,2 C 77 % 1019,5 hPa 0,0 l/m 9,3 km/h (2 Bft) O-NO 2,4 C 3,9 C 19,8 km/h (3 Bft)
29.10.2017 00:00 6,0 C 81 % 1018,8 hPa 0,0 l/m 10,4 km/h (2 Bft) O-NO 2,9 C 3,1 C 23,6 km/h (4 Bft)
29.10.2017 01:00 5,5 C 89 % 1018,4 hPa 0,0 l/m 9,7 km/h (2 Bft) O 3,8 C 2,9 C 22,4 km/h (4 Bft)
29.10.2017 02:00 5,7 C 92 % 1016,5 hPa 0,8 l/m 8,8 km/h (2 Bft) O-NO 4,4 C 3,8 C 21,6 km/h (4 Bft)
29.10.2017 03:00 6,0 C 94 % 1015,3 hPa 1,5 l/m 8,6 km/h (2 Bft) O-NO 5,1 C 4,3 C 20,1 km/h (4 Bft)
29.10.2017 04:00 6,3 C 94 % 1014,7 hPa 1,5 l/m 8,3 km/h (2 Bft) O-NO 5,4 C 4,6 C 20,9 km/h (4 Bft)
29.10.2017 05:00 6,5 C 95 % 1013,4 hPa 0,5 l/m 9,1 km/h (2 Bft) O-NO 5,7 C 4,4 C 20,4 km/h (4 Bft)
29.10.2017 06:00 6,6 C 95 % 1012,8 hPa 0,0 l/m 8,2 km/h (2 Bft) NO 5,9 C 5,2 C 21,9 km/h (4 Bft)
29.10.2017 07:00 6,6 C 95 % 1012,8 hPa 0,0 l/m 7,6 km/h (2 Bft) O 5,9 C 5,4 C 20,4 km/h (4 Bft)
29.10.2017 08:00 6,8 C 95 % 1012,9 hPa 2,8 l/m 9,0 km/h (2 Bft) O-NO 6,0 C 4,9 C 22,1 km/h (4 Bft)
29.10.2017 09:00 7,1 C 95 % 1012,7 hPa 1,5 l/m 7,8 km/h (2 Bft) O-NO 6,4 C 6,0 C 19,7 km/h (3 Bft)
29.10.2017 10:00 7,2 C 95 % 1012,8 hPa 1,3 l/m 7,3 km/h (2 Bft) O-NO 6,5 C 6,3 C 18,9 km/h (3 Bft)
29.10.2017 11:00 7,7 C 95 % 1013,2 hPa 2,0 l/m 5,4 km/h (1 Bft) O-NO 6,9 C 7,5 C 13,0 km/h (3 Bft)
29.10.2017 12:00 7,8 C 95 % 1013,4 hPa 3,6 l/m 4,7 km/h (1 Bft) O-NO 7,1 C 7,5 C 11,2 km/h (2 Bft)
29.10.2017 13:00 8,0 C 96 % 1014,3 hPa 4,3 l/m 2,1 km/h (1 Bft) O 7,4 C 8,0 C 6,3 km/h (2 Bft)
29.10.2017 14:00 7,9 C 94 % 1015,0 hPa 0,5 l/m 2,3 km/h (1 Bft) O-NO 7,1 C 7,9 C 7,1 km/h (2 Bft)
29.10.2017 15:00 7,6 C 93 % 1015,6 hPa 0,0 l/m 2,3 km/h (1 Bft) O-NO 6,5 C 7,6 C 7,6 km/h (2 Bft)
29.10.2017 16:00 6,6 C 93 % 1016,7 hPa 0,0 l/m 1,0 km/h (0 Bft) O-NO 5,6 C 6,6 C 4,0 km/h (1 Bft)
29.10.2017 17:00 5,6 C 94 % 1017,3 hPa 0,0 l/m 0,5 km/h (0 Bft) O 4,8 C 5,6 C 3,3 km/h (1 Bft)
29.10.2017 18:00 5,4 C 95 % 1018,2 hPa 0,0 l/m 0,3 km/h (0 Bft) O 4,7 C 5,4 C 2,0 km/h (1 Bft)
29.10.2017 19:00 4,5 C 95 % 1018,7 hPa 0,0 l/m 0,6 km/h (0 Bft) O 3,8 C 4,5 C 2,9 km/h (1 Bft)
29.10.2017 20:00 3,3 C 95 % 1019,4 hPa 0,0 l/m 0,2 km/h (0 Bft) O 2,6 C 3,3 C 1,3 km/h (1 Bft)
29.10.2017 21:00 2,6 C 96 % 1020,4 hPa 0,0 l/m 0,3 km/h (0 Bft) S 2,1 C 2,6 C 1,7 km/h (1 Bft)
29.10.2017 22:00 1,9 C 96 % 1020,7 hPa 0,0 l/m 0,0 km/h (0 Bft) S 1,3 C 1,9 C 0,3 km/h (0 Bft)
29.10.2017 23:00 0,8 C 96 % 1020,9 hPa 0,3 l/m 0,1 km/h (0 Bft) S 0,2 C 0,8 C 0,6 km/h (0 Bft)
Min-Datum _ 29.10.17 26.10.17 29.10.17 - 29.10.17 - 29.10.17 29.10.17 29.10.17
_ Min-Zeit 23:59 14:25 07:45 - 23:00 - 23:59 00:04 23:00
Minimum _ 0,4 C 61 % 1012,4 hPa - 0,0 km/h (0 Bft) - -0,2 C -0,6 C 0,0 km/h (0 Bft)
Max-Datum _ 26.10.17 28.10.17 27.10.17 29.10.17 29.10.17 - 26.10.17 26.10.17 29.10.17
_ Max-Zeit 15:30 09:15 23:05 13:05 00:04 - 17:30 15:30 00:04
Maximum _ 21,0 C 98 % 1029,7 hPa 4,3 l/m 17,7 km/h
O-NO (3 Bft)
- 14,0 C 21,0 C 33,8 km/h
O-NO (5 Bft)
Durchschnitt _ 8,9 C 90 % 1023,1 hPa #30,7 l/m 2,4 km/h (1 Bft) O-NO 7,1 C 8,6 C 6,5 km/h (2 Bft)